sensor_id;sensor_type;location;lat;lon;timestamp;pressure;altitude;pressure_sealevel;temperature;humidity
48652;BME280;34442;52.362;-1.302;2023-02-23T00:02:15;100280.56;;;5.54;100.00
48652;BME280;34442;52.362;-1.302;2023-02-23T00:04:40;100275.75;;;5.49;100.00
48652;BME280;34442;52.362;-1.302;2023-02-23T00:07:06;100279.19;;;5.58;100.00
48652;BME280;34442;52.362;-1.302;2023-02-23T00:09:35;100274.53;;;5.60;100.00
48652;BME280;34442;52.362;-1.302;2023-02-23T00:12:02;100281.66;;;5.59;100.00
48652;BME280;34442;52.362;-1.302;2023-02-23T00:14:32;100285.63;;;5.40;100.00
48652;BME280;34442;52.362;-1.302;2023-02-23T00:16:58;100281.31;;;5.39;100.00
48652;BME280;34442;52.362;-1.302;2023-02-23T00:19:24;100282.97;;;5.40;100.00
48652;BME280;34442;52.362;-1.302;2023-02-23T00:21:50;100295.53;;;5.32;100.00
48652;BME280;34442;52.362;-1.302;2023-02-23T00:24:16;100285.97;;;5.37;100.00
48652;BME280;34442;52.362;-1.302;2023-02-23T00:26:46;100292.31;;;5.36;100.00
48652;BME280;34442;52.362;-1.302;2023-02-23T00:29:15;100292.66;;;5.33;100.00
48652;BME280;34442;52.362;-1.302;2023-02-23T00:31:42;100291.13;;;5.39;100.00
48652;BME280;34442;52.362;-1.302;2023-02-23T00:34:09;100301.34;;;5.35;100.00
48652;BME280;34442;52.362;-1.302;2023-02-23T00:36:35;100300.97;;;5.38;100.00
48652;BME280;34442;52.362;-1.302;2023-02-23T00:39:03;100300.13;;;5.38;100.00
48652;BME280;34442;52.362;-1.302;2023-02-23T00:41:35;100286.03;;;5.29;100.00
48652;BME280;34442;52.362;-1.302;2023-02-23T00:44:00;100291.00;;;5.32;100.00
48652;BME280;34442;52.362;-1.302;2023-02-23T00:46:28;100297.16;;;5.33;100.00
48652;BME280;34442;52.362;-1.302;2023-02-23T00:48:57;100298.53;;;5.29;100.00
48652;BME280;34442;52.362;-1.302;2023-02-23T00:51:25;100289.22;;;5.25;100.00
48652;BME280;34442;52.362;-1.302;2023-02-23T00:53:58;100287.25;;;5.18;100.00
48652;BME280;34442;52.362;-1.302;2023-02-23T00:56:24;100287.41;;;6.40;100.00
48652;BME280;34442;52.362;-1.302;2023-02-23T00:58:49;100281.94;;;6.71;100.00
48652;BME280;34442;52.362;-1.302;2023-02-23T01:01:16;100285.03;;;6.60;100.00
48652;BME280;34442;52.362;-1.302;2023-02-23T01:03:42;100299.59;;;6.72;100.00
48652;BME280;34442;52.362;-1.302;2023-02-23T01:06:10;100294.69;;;6.61;100.00
48652;BME280;34442;52.362;-1.302;2023-02-23T01:08:39;100298.31;;;6.68;100.00
48652;BME280;34442;52.362;-1.302;2023-02-23T01:11:10;100297.94;;;6.71;100.00
48652;BME280;34442;52.362;-1.302;2023-02-23T01:13:36;100300.97;;;6.68;100.00
48652;BME280;34442;52.362;-1.302;2023-02-23T01:16:06;100298.41;;;6.60;100.00
48652;BME280;34442;52.362;-1.302;2023-02-23T01:18:36;100310.56;;;6.77;100.00
48652;BME280;34442;52.362;-1.302;2023-02-23T01:21:03;100309.53;;;6.78;100.00
48652;BME280;34442;52.362;-1.302;2023-02-23T01:23:32;100311.31;;;6.71;100.00
48652;BME280;34442;52.362;-1.302;2023-02-23T01:25:57;100316.22;;;6.07;100.00
48652;BME280;34442;52.362;-1.302;2023-02-23T01:28:23;100314.66;;;6.12;100.00
48652;BME280;34442;52.362;-1.302;2023-02-23T01:30:49;100308.34;;;6.51;100.00
48652;BME280;34442;52.362;-1.302;2023-02-23T01:33:14;100311.81;;;6.52;100.00
48652;BME280;34442;52.362;-1.302;2023-02-23T01:35:39;100310.38;;;6.64;100.00
48652;BME280;34442;52.362;-1.302;2023-02-23T01:38:05;100321.13;;;6.56;100.00
48652;BME280;34442;52.362;-1.302;2023-02-23T01:40:31;100318.34;;;6.34;100.00
48652;BME280;34442;52.362;-1.302;2023-02-23T01:43:16;100317.81;;;6.54;100.00
48652;BME280;34442;52.362;-1.302;2023-02-23T01:45:43;100316.47;;;6.72;100.00
48652;BME280;34442;52.362;-1.302;2023-02-23T01:48:13;100323.44;;;6.74;100.00
48652;BME280;34442;52.362;-1.302;2023-02-23T01:53:14;100323.47;;;6.88;100.00
48652;BME280;34442;52.362;-1.302;2023-02-23T01:55:41;100328.41;;;6.62;100.00
48652;BME280;34442;52.362;-1.302;2023-02-23T01:58:11;100318.09;;;6.74;100.00
48652;BME280;34442;52.362;-1.302;2023-02-23T02:00:46;100326.59;;;6.77;100.00
48652;BME280;34442;52.362;-1.302;2023-02-23T02:03:27;100322.06;;;6.78;100.00
48652;BME280;34442;52.362;-1.302;2023-02-23T02:05:55;100322.53;;;6.81;100.00
48652;BME280;34442;52.362;-1.302;2023-02-23T02:08:22;100321.22;;;6.62;100.00
48652;BME280;34442;52.362;-1.302;2023-02-23T02:10:51;100322.34;;;6.83;100.00
48652;BME280;34442;52.362;-1.302;2023-02-23T02:13:23;100317.75;;;6.91;100.00
48652;BME280;34442;52.362;-1.302;2023-02-23T02:16:06;100324.56;;;6.94;100.00
48652;BME280;34442;52.362;-1.302;2023-02-23T02:30:03;100326.88;;;6.97;100.00
48652;BME280;34442;52.362;-1.302;2023-02-23T02:33:10;100325.69;;;6.85;100.00
48652;BME280;34442;52.362;-1.302;2023-02-23T02:39:15;100324.75;;;6.92;100.00
48652;BME280;34442;52.362;-1.302;2023-02-23T02:42:11;100331.09;;;6.77;100.00
48652;BME280;34442;52.362;-1.302;2023-02-23T02:44:54;100322.00;;;6.71;100.00
48652;BME280;34442;52.362;-1.302;2023-02-23T02:47:44;100329.16;;;6.70;100.00
48652;BME280;34442;52.362;-1.302;2023-02-23T02:50:57;100335.97;;;6.73;100.00
48652;BME280;34442;52.362;-1.302;2023-02-23T02:53:07;100338.13;;;6.92;100.00
48652;BME280;34442;52.362;-1.302;2023-02-23T02:55:35;100332.78;;;6.92;100.00
48652;BME280;34442;52.362;-1.302;2023-02-23T02:58:04;100326.69;;;6.84;100.00
48652;BME280;34442;52.362;-1.302;2023-02-23T03:00:45;100323.63;;;6.87;100.00
48652;BME280;34442;52.362;-1.302;2023-02-23T03:06:26;100330.28;;;6.91;100.00
48652;BME280;34442;52.362;-1.302;2023-02-23T03:09:31;100321.97;;;6.86;100.00
48652;BME280;34442;52.362;-1.302;2023-02-23T03:12:36;100337.31;;;6.92;100.00
48652;BME280;34442;52.362;-1.302;2023-02-23T03:21:28;100337.56;;;6.97;100.00
48652;BME280;34442;52.362;-1.302;2023-02-23T03:27:30;100339.97;;;6.92;100.00
48652;BME280;34442;52.362;-1.302;2023-02-23T03:30:53;100332.88;;;6.84;100.00
48652;BME280;34442;52.362;-1.302;2023-02-23T03:33:58;100339.06;;;7.00;100.00
48652;BME280;34442;52.362;-1.302;2023-02-23T03:36:49;100350.09;;;6.96;100.00
48652;BME280;34442;52.362;-1.302;2023-02-23T03:39:41;100341.63;;;7.08;100.00
48652;BME280;34442;52.362;-1.302;2023-02-23T03:42:29;100355.91;;;7.00;100.00
48652;BME280;34442;52.362;-1.302;2023-02-23T03:45:20;100353.31;;;7.07;100.00
48652;BME280;34442;52.362;-1.302;2023-02-23T03:48:08;100355.81;;;7.08;100.00
48652;BME280;34442;52.362;-1.302;2023-02-23T03:50:55;100355.63;;;6.95;100.00
48652;BME280;34442;52.362;-1.302;2023-02-23T03:53:49;100364.56;;;6.87;100.00
48652;BME280;34442;52.362;-1.302;2023-02-23T03:56:36;100368.06;;;7.03;100.00
48652;BME280;34442;52.362;-1.302;2023-02-23T03:59:24;100362.53;;;6.89;100.00
48652;BME280;34442;52.362;-1.302;2023-02-23T04:02:13;100364.00;;;6.77;100.00
48652;BME280;34442;52.362;-1.302;2023-02-23T04:05:01;100373.88;;;6.91;100.00
48652;BME280;34442;52.362;-1.302;2023-02-23T04:07:48;100377.75;;;7.04;100.00
48652;BME280;34442;52.362;-1.302;2023-02-23T04:10:43;100383.19;;;7.10;100.00
48652;BME280;34442;52.362;-1.302;2023-02-23T04:13:29;100384.31;;;7.16;100.00
48652;BME280;34442;52.362;-1.302;2023-02-23T04:16:02;100388.06;;;7.07;100.00
48652;BME280;34442;52.362;-1.302;2023-02-23T04:18:32;100388.25;;;7.20;100.00
48652;BME280;34442;52.362;-1.302;2023-02-23T04:20:58;100394.81;;;7.17;100.00
48652;BME280;34442;52.362;-1.302;2023-02-23T04:23:25;100390.75;;;6.92;100.00
48652;BME280;34442;52.362;-1.302;2023-02-23T04:25:51;100387.72;;;7.10;100.00
48652;BME280;34442;52.362;-1.302;2023-02-23T04:28:17;100384.84;;;7.11;100.00
48652;BME280;34442;52.362;-1.302;2023-02-23T04:30:43;100391.28;;;7.02;100.00
48652;BME280;34442;52.362;-1.302;2023-02-23T04:33:09;100397.63;;;6.86;100.00
48652;BME280;34442;52.362;-1.302;2023-02-23T04:35:35;100409.41;;;6.77;100.00
48652;BME280;34442;52.362;-1.302;2023-02-23T04:38:00;100396.56;;;6.95;100.00
48652;BME280;34442;52.362;-1.302;2023-02-23T04:43:01;100407.59;;;6.92;100.00
48652;BME280;34442;52.362;-1.302;2023-02-23T04:45:26;100413.09;;;6.91;100.00
48652;BME280;34442;52.362;-1.302;2023-02-23T04:47:52;100412.13;;;6.92;100.00
48652;BME280;34442;52.362;-1.302;2023-02-23T04:50:18;100410.94;;;7.09;100.00
48652;BME280;34442;52.362;-1.302;2023-02-23T04:52:44;100411.28;;;7.06;100.00
48652;BME280;34442;52.362;-1.302;2023-02-23T04:55:21;100419.22;;;7.00;100.00
48652;BME280;34442;52.362;-1.302;2023-02-23T04:57:47;100421.75;;;7.16;100.00
48652;BME280;34442;52.362;-1.302;2023-02-23T05:00:13;100424.94;;;6.96;100.00
48652;BME280;34442;52.362;-1.302;2023-02-23T05:02:39;100426.13;;;6.94;100.00
48652;BME280;34442;52.362;-1.302;2023-02-23T05:05:06;100431.22;;;7.04;100.00
48652;BME280;34442;52.362;-1.302;2023-02-23T05:07:32;100438.31;;;6.74;100.00
48652;BME280;34442;52.362;-1.302;2023-02-23T05:09:57;100435.50;;;6.90;100.00
48652;BME280;34442;52.362;-1.302;2023-02-23T05:12:23;100438.22;;;6.67;100.00
48652;BME280;34442;52.362;-1.302;2023-02-23T05:14:48;100451.19;;;6.93;100.00
48652;BME280;34442;52.362;-1.302;2023-02-23T05:17:14;100445.19;;;6.91;100.00
48652;BME280;34442;52.362;-1.302;2023-02-23T05:19:39;100451.53;;;6.90;100.00
48652;BME280;34442;52.362;-1.302;2023-02-23T05:22:05;100448.78;;;6.98;100.00
48652;BME280;34442;52.362;-1.302;2023-02-23T05:24:31;100452.44;;;6.82;100.00
48652;BME280;34442;52.362;-1.302;2023-02-23T05:26:57;100462.69;;;6.93;100.00
48652;BME280;34442;52.362;-1.302;2023-02-23T05:29:23;100461.00;;;6.78;100.00
48652;BME280;34442;52.362;-1.302;2023-02-23T05:31:49;100460.22;;;6.92;100.00
48652;BME280;34442;52.362;-1.302;2023-02-23T05:34:16;100469.34;;;6.97;100.00
48652;BME280;34442;52.362;-1.302;2023-02-23T05:36:42;100471.75;;;6.92;100.00
48652;BME280;34442;52.362;-1.302;2023-02-23T05:39:07;100469.94;;;7.08;100.00
48652;BME280;34442;52.362;-1.302;2023-02-23T05:41:33;100468.16;;;7.00;100.00
48652;BME280;34442;52.362;-1.302;2023-02-23T05:43:58;100482.16;;;7.02;100.00
48652;BME280;34442;52.362;-1.302;2023-02-23T05:46:25;100472.84;;;6.98;100.00
48652;BME280;34442;52.362;-1.302;2023-02-23T05:48:56;100474.91;;;6.73;100.00
48652;BME280;34442;52.362;-1.302;2023-02-23T05:51:23;100472.63;;;6.85;100.00
48652;BME280;34442;52.362;-1.302;2023-02-23T05:53:49;100473.03;;;6.96;100.00
48652;BME280;34442;52.362;-1.302;2023-02-23T05:56:16;100475.81;;;7.03;100.00
48652;BME280;34442;52.362;-1.302;2023-02-23T05:58:48;100478.31;;;7.05;100.00
48652;BME280;34442;52.362;-1.302;2023-02-23T06:01:14;100475.44;;;7.06;100.00
48652;BME280;34442;52.362;-1.302;2023-02-23T06:03:41;100479.03;;;6.99;100.00
48652;BME280;34442;52.362;-1.302;2023-02-23T06:06:07;100484.47;;;7.05;100.00
48652;BME280;34442;52.362;-1.302;2023-02-23T06:08:32;100484.50;;;6.82;100.00
48652;BME280;34442;52.362;-1.302;2023-02-23T06:10:58;100488.09;;;7.12;100.00
48652;BME280;34442;52.362;-1.302;2023-02-23T06:13:23;100494.06;;;7.00;100.00
48652;BME280;34442;52.362;-1.302;2023-02-23T06:15:49;100494.84;;;6.85;100.00
48652;BME280;34442;52.362;-1.302;2023-02-23T06:18:15;100506.59;;;6.76;100.00
48652;BME280;34442;52.362;-1.302;2023-02-23T06:20:41;100506.28;;;6.94;100.00
48652;BME280;34442;52.362;-1.302;2023-02-23T06:23:08;100508.81;;;6.95;100.00
48652;BME280;34442;52.362;-1.302;2023-02-23T06:25:33;100514.63;;;6.76;100.00
48652;BME280;34442;52.362;-1.302;2023-02-23T06:27:59;100512.78;;;6.77;100.00
48652;BME280;34442;52.362;-1.302;2023-02-23T06:30:24;100513.84;;;6.67;100.00
48652;BME280;34442;52.362;-1.302;2023-02-23T06:32:50;100519.91;;;6.84;100.00
48652;BME280;34442;52.362;-1.302;2023-02-23T06:35:15;100510.81;;;6.47;100.00
48652;BME280;34442;52.362;-1.302;2023-02-23T06:37:41;100525.41;;;6.60;100.00
48652;BME280;34442;52.362;-1.302;2023-02-23T06:40:08;100530.69;;;6.45;100.00
48652;BME280;34442;52.362;-1.302;2023-02-23T06:42:34;100523.88;;;6.65;100.00
48652;BME280;34442;52.362;-1.302;2023-02-23T06:45:01;100523.03;;;6.65;100.00
48652;BME280;34442;52.362;-1.302;2023-02-23T06:47:27;100531.41;;;6.62;100.00
48652;BME280;34442;52.362;-1.302;2023-02-23T06:49:52;100527.84;;;6.69;100.00
48652;BME280;34442;52.362;-1.302;2023-02-23T06:52:19;100538.72;;;6.68;100.00
48652;BME280;34442;52.362;-1.302;2023-02-23T06:54:44;100554.97;;;6.27;100.00
48652;BME280;34442;52.362;-1.302;2023-02-23T06:57:10;100550.88;;;6.47;100.00
48652;BME280;34442;52.362;-1.302;2023-02-23T06:59:36;100552.00;;;6.53;100.00
48652;BME280;34442;52.362;-1.302;2023-02-23T07:02:02;100559.38;;;6.51;100.00
48652;BME280;34442;52.362;-1.302;2023-02-23T07:04:31;100564.53;;;6.53;100.00
48652;BME280;34442;52.362;-1.302;2023-02-23T07:06:57;100564.56;;;6.44;100.00
48652;BME280;34442;52.362;-1.302;2023-02-23T07:09:22;100573.09;;;6.40;100.00
48652;BME280;34442;52.362;-1.302;2023-02-23T07:11:48;100567.16;;;6.30;100.00
48652;BME280;34442;52.362;-1.302;2023-02-23T07:14:13;100576.97;;;6.29;100.00
48652;BME280;34442;52.362;-1.302;2023-02-23T07:16:39;100577.47;;;6.33;100.00
48652;BME280;34442;52.362;-1.302;2023-02-23T07:19:05;100594.56;;;6.15;100.00
48652;BME280;34442;52.362;-1.302;2023-02-23T07:21:31;100600.41;;;6.11;100.00
48652;BME280;34442;52.362;-1.302;2023-02-23T07:23:58;100604.19;;;6.25;100.00
48652;BME280;34442;52.362;-1.302;2023-02-23T07:26:24;100611.25;;;6.17;100.00
48652;BME280;34442;52.362;-1.302;2023-02-23T07:28:49;100611.25;;;6.17;100.00
48652;BME280;34442;52.362;-1.302;2023-02-23T07:31:15;100609.97;;;6.05;100.00
48652;BME280;34442;52.362;-1.302;2023-02-23T07:33:40;100616.13;;;6.06;100.00
48652;BME280;34442;52.362;-1.302;2023-02-23T07:36:06;100621.41;;;6.22;100.00
48652;BME280;34442;52.362;-1.302;2023-02-23T07:38:32;100633.91;;;6.30;100.00
48652;BME280;34442;52.362;-1.302;2023-02-23T07:40:57;100635.34;;;6.40;100.00
48652;BME280;34442;52.362;-1.302;2023-02-23T07:43:26;100647.22;;;6.38;100.00
48652;BME280;34442;52.362;-1.302;2023-02-23T07:45:58;100658.38;;;6.41;100.00
48652;BME280;34442;52.362;-1.302;2023-02-23T07:48:26;100663.38;;;6.44;100.00
48652;BME280;34442;52.362;-1.302;2023-02-23T07:50:52;100665.34;;;6.51;100.00
48652;BME280;34442;52.362;-1.302;2023-02-23T07:53:18;100672.47;;;6.58;100.00
48652;BME280;34442;52.362;-1.302;2023-02-23T07:55:44;100682.88;;;6.45;100.00
48652;BME280;34442;52.362;-1.302;2023-02-23T07:58:09;100682.34;;;6.58;100.00
48652;BME280;34442;52.362;-1.302;2023-02-23T08:00:38;100687.13;;;6.70;100.00
48652;BME280;34442;52.362;-1.302;2023-02-23T08:03:05;100689.91;;;6.46;100.00
48652;BME280;34442;52.362;-1.302;2023-02-23T08:05:31;100697.41;;;6.51;100.00
48652;BME280;34442;52.362;-1.302;2023-02-23T08:07:57;100706.75;;;6.55;100.00
48652;BME280;34442;52.362;-1.302;2023-02-23T08:10:23;100708.94;;;6.43;100.00
48652;BME280;34442;52.362;-1.302;2023-02-23T08:12:49;100708.53;;;6.62;100.00
48652;BME280;34442;52.362;-1.302;2023-02-23T08:15:14;100711.34;;;6.69;100.00
48652;BME280;34442;52.362;-1.302;2023-02-23T08:17:40;100708.09;;;6.51;100.00
48652;BME280;34442;52.362;-1.302;2023-02-23T08:20:06;100712.22;;;6.61;100.00
48652;BME280;34442;52.362;-1.302;2023-02-23T08:22:32;100701.72;;;6.60;100.00
48652;BME280;34442;52.362;-1.302;2023-02-23T08:24:58;100697.19;;;6.60;100.00
48652;BME280;34442;52.362;-1.302;2023-02-23T08:27:24;100698.59;;;6.40;100.00
48652;BME280;34442;52.362;-1.302;2023-02-23T08:29:50;100693.56;;;6.45;100.00
48652;BME280;34442;52.362;-1.302;2023-02-23T08:32:19;100696.97;;;6.31;100.00
48652;BME280;34442;52.362;-1.302;2023-02-23T08:34:45;100706.09;;;6.44;100.00
48652;BME280;34442;52.362;-1.302;2023-02-23T08:37:11;100702.78;;;6.42;100.00
48652;BME280;34442;52.362;-1.302;2023-02-23T08:39:36;100700.28;;;6.33;100.00
48652;BME280;34442;52.362;-1.302;2023-02-23T08:42:05;100701.66;;;6.20;100.00
48652;BME280;34442;52.362;-1.302;2023-02-23T08:44:30;100696.66;;;6.17;100.00
48652;BME280;34442;52.362;-1.302;2023-02-23T08:46:56;100708.13;;;6.42;100.00
48652;BME280;34442;52.362;-1.302;2023-02-23T08:49:23;100712.31;;;6.29;100.00
48652;BME280;34442;52.362;-1.302;2023-02-23T08:51:50;100725.97;;;6.42;100.00
48652;BME280;34442;52.362;-1.302;2023-02-23T08:54:16;100722.25;;;6.59;100.00
48652;BME280;34442;52.362;-1.302;2023-02-23T08:56:43;100725.59;;;6.53;100.00
48652;BME280;34442;52.362;-1.302;2023-02-23T08:59:10;100722.72;;;6.71;100.00
48652;BME280;34442;52.362;-1.302;2023-02-23T09:01:36;100719.88;;;6.64;100.00
48652;BME280;34442;52.362;-1.302;2023-02-23T09:04:03;100722.41;;;6.58;100.00
48652;BME280;34442;52.362;-1.302;2023-02-23T09:06:29;100717.75;;;6.60;100.00
48652;BME280;34442;52.362;-1.302;2023-02-23T09:08:55;100726.56;;;6.60;100.00
48652;BME280;34442;52.362;-1.302;2023-02-23T09:11:22;100719.41;;;6.53;100.00
48652;BME280;34442;52.362;-1.302;2023-02-23T09:13:49;100724.22;;;6.65;100.00
48652;BME280;34442;52.362;-1.302;2023-02-23T09:16:15;100728.16;;;6.86;100.00
48652;BME280;34442;52.362;-1.302;2023-02-23T09:18:41;100742.34;;;6.86;100.00
48652;BME280;34442;52.362;-1.302;2023-02-23T09:21:09;100734.25;;;7.03;100.00
48652;BME280;34442;52.362;-1.302;2023-02-23T09:23:38;100730.59;;;7.04;100.00
48652;BME280;34442;52.362;-1.302;2023-02-23T09:26:05;100725.66;;;6.84;100.00
48652;BME280;34442;52.362;-1.302;2023-02-23T09:28:32;100716.66;;;6.77;100.00
48652;BME280;34442;52.362;-1.302;2023-02-23T09:31:03;100730.66;;;6.87;100.00
48652;BME280;34442;52.362;-1.302;2023-02-23T09:33:30;100735.16;;;6.87;100.00
48652;BME280;34442;52.362;-1.302;2023-02-23T09:35:56;100740.06;;;6.75;100.00
48652;BME280;34442;52.362;-1.302;2023-02-23T09:38:21;100738.06;;;6.69;100.00
48652;BME280;34442;52.362;-1.302;2023-02-23T09:40:50;100735.59;;;6.99;100.00
48652;BME280;34442;52.362;-1.302;2023-02-23T09:43:52;100729.38;;;7.06;100.00
48652;BME280;34442;52.362;-1.302;2023-02-23T09:46:19;100725.88;;;7.06;100.00
48652;BME280;34442;52.362;-1.302;2023-02-23T09:48:55;100726.50;;;7.16;100.00
48652;BME280;34442;52.362;-1.302;2023-02-23T09:51:22;100721.06;;;7.01;100.00
48652;BME280;34442;52.362;-1.302;2023-02-23T09:53:59;100726.84;;;7.13;100.00
48652;BME280;34442;52.362;-1.302;2023-02-23T09:56:37;100720.94;;;7.26;100.00
48652;BME280;34442;52.362;-1.302;2023-02-23T09:59:05;100719.38;;;7.31;100.00
48652;BME280;34442;52.362;-1.302;2023-02-23T10:04:10;100725.25;;;7.27;100.00
48652;BME280;34442;52.362;-1.302;2023-02-23T10:06:39;100728.66;;;7.43;100.00
48652;BME280;34442;52.362;-1.302;2023-02-23T10:20:12;100731.34;;;7.66;100.00
48652;BME280;34442;52.362;-1.302;2023-02-23T10:22:33;100732.41;;;7.34;100.00
48652;BME280;34442;52.362;-1.302;2023-02-23T10:25:03;100728.19;;;7.63;100.00
48652;BME280;34442;52.362;-1.302;2023-02-23T10:27:40;100730.69;;;7.64;100.00
48652;BME280;34442;52.362;-1.302;2023-02-23T10:30:32;100736.88;;;7.42;100.00
48652;BME280;34442;52.362;-1.302;2023-02-23T10:33:03;100736.94;;;7.80;100.00
48652;BME280;34442;52.362;-1.302;2023-02-23T10:35:30;100742.75;;;7.83;100.00
48652;BME280;34442;52.362;-1.302;2023-02-23T10:37:56;100734.91;;;7.82;100.00
48652;BME280;34442;52.362;-1.302;2023-02-23T10:40:24;100739.53;;;7.88;100.00
48652;BME280;34442;52.362;-1.302;2023-02-23T10:42:52;100746.06;;;8.08;100.00
48652;BME280;34442;52.362;-1.302;2023-02-23T10:45:21;100763.06;;;8.15;100.00
48652;BME280;34442;52.362;-1.302;2023-02-23T10:50:21;100745.47;;;7.98;100.00
48652;BME280;34442;52.362;-1.302;2023-02-23T10:52:54;100755.03;;;8.15;100.00
48652;BME280;34442;52.362;-1.302;2023-02-23T10:55:31;100742.28;;;8.17;100.00
48652;BME280;34442;52.362;-1.302;2023-02-23T11:00:28;100751.34;;;8.16;100.00
48652;BME280;34442;52.362;-1.302;2023-02-23T11:02:58;100748.03;;;7.91;100.00
48652;BME280;34442;52.362;-1.302;2023-02-23T11:05:44;100758.53;;;8.16;100.00
48652;BME280;34442;52.362;-1.302;2023-02-23T11:08:27;100758.38;;;8.32;100.00
48652;BME280;34442;52.362;-1.302;2023-02-23T11:10:56;100760.56;;;8.14;100.00
48652;BME280;34442;52.362;-1.302;2023-02-23T11:13:23;100757.72;;;8.30;100.00
48652;BME280;34442;52.362;-1.302;2023-02-23T11:15:58;100766.22;;;8.19;100.00
48652;BME280;34442;52.362;-1.302;2023-02-23T11:18:26;100764.19;;;8.21;100.00
48652;BME280;34442;52.362;-1.302;2023-02-23T11:20:52;100769.22;;;8.39;100.00
48652;BME280;34442;52.362;-1.302;2023-02-23T11:23:33;100762.38;;;8.36;100.00
48652;BME280;34442;52.362;-1.302;2023-02-23T11:26:03;100769.41;;;8.37;100.00
48652;BME280;34442;52.362;-1.302;2023-02-23T11:28:36;100762.59;;;8.50;100.00
48652;BME280;34442;52.362;-1.302;2023-02-23T11:31:14;100762.38;;;8.36;100.00
48652;BME280;34442;52.362;-1.302;2023-02-23T11:33:40;100760.28;;;8.47;100.00
48652;BME280;34442;52.362;-1.302;2023-02-23T11:38:46;100772.41;;;8.34;100.00
48652;BME280;34442;52.362;-1.302;2023-02-23T11:41:21;100775.91;;;8.35;95.11
48652;BME280;34442;52.362;-1.302;2023-02-23T11:43:55;100767.13;;;8.64;100.00
48652;BME280;34442;52.362;-1.302;2023-02-23T11:46:21;100763.81;;;8.62;100.00
48652;BME280;34442;52.362;-1.302;2023-02-23T11:49:00;100770.63;;;8.79;100.00
48652;BME280;34442;52.362;-1.302;2023-02-23T11:51:36;100775.34;;;9.07;100.00
48652;BME280;34442;52.362;-1.302;2023-02-23T11:54:03;100776.28;;;8.99;100.00
48652;BME280;34442;52.362;-1.302;2023-02-23T11:56:31;100773.50;;;8.92;100.00
48652;BME280;34442;52.362;-1.302;2023-02-23T11:59:03;100775.28;;;8.85;100.00
48652;BME280;34442;52.362;-1.302;2023-02-23T12:01:50;100784.13;;;9.01;100.00
48652;BME280;34442;52.362;-1.302;2023-02-23T12:04:31;100771.09;;;8.83;100.00
48652;BME280;34442;52.362;-1.302;2023-02-23T12:07:34;100772.09;;;9.11;100.00
48652;BME280;34442;52.362;-1.302;2023-02-23T12:13:02;100771.66;;;9.44;100.00
48652;BME280;34442;52.362;-1.302;2023-02-23T12:15:53;100773.63;;;9.20;100.00
48652;BME280;34442;52.362;-1.302;2023-02-23T12:18:41;100782.47;;;9.00;100.00
48652;BME280;34442;52.362;-1.302;2023-02-23T12:21:16;100784.31;;;8.99;100.00
48652;BME280;34442;52.362;-1.302;2023-02-23T12:23:47;100780.13;;;9.11;100.00
48652;BME280;34442;52.362;-1.302;2023-02-23T12:26:18;100774.25;;;9.01;99.18
48652;BME280;34442;52.362;-1.302;2023-02-23T12:31:26;100780.03;;;9.34;98.36
48652;BME280;34442;52.362;-1.302;2023-02-23T12:34:07;100767.59;;;9.33;100.00
48652;BME280;34442;52.362;-1.302;2023-02-23T12:36:44;100760.59;;;9.54;100.00
48652;BME280;34442;52.362;-1.302;2023-02-23T12:42:35;100751.97;;;10.01;96.36
48652;BME280;34442;52.362;-1.302;2023-02-23T12:44:58;100755.88;;;9.56;100.00
48652;BME280;34442;52.362;-1.302;2023-02-23T12:47:38;100762.41;;;9.47;100.00
48652;BME280;34442;52.362;-1.302;2023-02-23T12:52:49;100761.25;;;9.56;100.00
48652;BME280;34442;52.362;-1.302;2023-02-23T12:55:25;100771.53;;;9.52;100.00
48652;BME280;34442;52.362;-1.302;2023-02-23T12:57:57;100771.41;;;9.39;100.00
48652;BME280;34442;52.362;-1.302;2023-02-23T13:00:41;100775.16;;;9.44;87.81
48652;BME280;34442;52.362;-1.302;2023-02-23T13:03:15;100771.00;;;9.42;100.00
48652;BME280;34442;52.362;-1.302;2023-02-23T13:06:03;100772.75;;;9.50;99.78
48652;BME280;34442;52.362;-1.302;2023-02-23T13:16:50;100751.25;;;9.50;99.69
48652;BME280;34442;52.362;-1.302;2023-02-23T13:19:40;100762.56;;;9.45;100.00
48652;BME280;34442;52.362;-1.302;2023-02-23T13:24:47;100760.94;;;9.29;100.00
48652;BME280;34442;52.362;-1.302;2023-02-23T13:29:55;100765.75;;;8.98;100.00
48652;BME280;34442;52.362;-1.302;2023-02-23T13:32:25;100763.16;;;8.75;100.00
48652;BME280;34442;52.362;-1.302;2023-02-23T13:34:55;100756.16;;;9.25;100.00
48652;BME280;34442;52.362;-1.302;2023-02-23T13:37:32;100753.38;;;9.54;97.38
48652;BME280;34442;52.362;-1.302;2023-02-23T13:40:23;100758.13;;;9.74;96.08
48652;BME280;34442;52.362;-1.302;2023-02-23T13:46:01;100759.78;;;9.17;96.91
48652;BME280;34442;52.362;-1.302;2023-02-23T13:51:41;100756.66;;;8.99;100.00
48652;BME280;34442;52.362;-1.302;2023-02-23T13:56:48;100755.84;;;8.98;99.88
48652;BME280;34442;52.362;-1.302;2023-02-23T13:59:27;100745.41;;;9.25;95.76
48652;BME280;34442;52.362;-1.302;2023-02-23T14:01:54;100742.72;;;9.61;98.96
48652;BME280;34442;52.362;-1.302;2023-02-23T14:04:36;100758.81;;;9.61;95.14
48652;BME280;34442;52.362;-1.302;2023-02-23T14:07:15;100754.69;;;9.22;92.77
48652;BME280;34442;52.362;-1.302;2023-02-23T14:09:58;100761.88;;;9.36;96.32
48652;BME280;34442;52.362;-1.302;2023-02-23T14:12:35;100770.28;;;8.97;89.55
48652;BME280;34442;52.362;-1.302;2023-02-23T14:18:00;100766.41;;;9.21;95.65
48652;BME280;34442;52.362;-1.302;2023-02-23T14:26:08;100777.22;;;9.42;82.44
48652;BME280;34442;52.362;-1.302;2023-02-23T14:28:37;100770.03;;;9.28;95.16
48652;BME280;34442;52.362;-1.302;2023-02-23T14:44:30;100776.38;;;9.06;89.84
48652;BME280;34442;52.362;-1.302;2023-02-23T14:49:26;100772.81;;;9.56;96.66
48652;BME280;34442;52.362;-1.302;2023-02-23T14:51:54;100772.94;;;9.48;95.47
48652;BME280;34442;52.362;-1.302;2023-02-23T14:56:52;100770.69;;;9.15;94.43